Time;durP1;ratioP1;P1;durP2;ratioP2;P2;SDS_P1;SDS_P2;PMS_P1;PMS_P2;Temp;Humidity;BMP_temperature;BMP_pressure;BME280_temperature;BME280_humidity;BME280_pressure;Samples;Min_cycle;Max_cycle;Signal;HPM_P1;HPM_P2
2023/05/29 00:01:20;;;;;;;;;;;17.80;99.90;;;;;;5034197;28;19924;-41
2023/05/29 00:03:46;;;;;;;;;;;17.80;99.90;;;;;;5034040;28;19905;-41
2023/05/29 00:06:13;;;;;;;;;;;17.80;99.90;;;;;;5033644;28;19915;-41
2023/05/29 00:08:38;;;;;;;;;;;17.80;99.90;;;;;;5034304;28;19909;-40
2023/05/29 00:11:04;;;;;;;;;;;17.80;99.90;;;;;;5033936;28;19935;-41
2023/05/29 00:13:30;;;;;;;;;;;17.80;99.90;;;;;;5033816;28;19909;-40
2023/05/29 00:15:56;;;;;;;;;;;17.80;99.90;;;;;;5033758;28;19905;-40
2023/05/29 00:18:21;;;;;;;;;;;17.70;99.90;;;;;;5033777;28;19936;-40
2023/05/29 00:20:47;;;;;;;;;;;17.70;99.90;;;;;;5033852;28;19905;-40
2023/05/29 00:23:13;;;;;;;;;;;17.70;99.90;;;;;;5033619;28;19940;-40
2023/05/29 00:25:40;;;;;;;;;;;17.70;99.90;;;;;;5033605;28;20522;-41
2023/05/29 00:28:06;;;;;;;;;;;17.70;99.90;;;;;;5033211;28;19905;-40
2023/05/29 00:30:32;;;;;;;;;;;17.70;99.90;;;;;;5033587;28;19916;-40
2023/05/29 00:32:58;;;;;;;;;;;17.70;99.90;;;;;;5033529;28;19905;-41
2023/05/29 00:35:24;;;;;;;;;;;17.60;99.90;;;;;;5033591;28;19905;-40
2023/05/29 00:37:49;;;;;;;;;;;17.60;99.90;;;;;;5032941;28;19939;-41
2023/05/29 00:40:15;;;;;;;;;;;17.60;99.90;;;;;;5033471;28;19916;-41
2023/05/29 00:42:41;;;;;;;;;;;17.70;99.90;;;;;;5033648;28;19913;-41
2023/05/29 00:45:07;;;;;;;;;;;17.60;99.90;;;;;;5033281;28;19913;-40
2023/05/29 00:47:32;;;;;;;;;;;17.70;99.90;;;;;;5032862;28;19905;-41
2023/05/29 00:49:58;;;;;;;;;;;17.60;99.90;;;;;;5033447;28;19947;-41
2023/05/29 00:52:24;;;;;;;;;;;17.60;99.90;;;;;;5033392;28;20405;-41
2023/05/29 00:54:50;;;;;;;;;;;17.60;99.90;;;;;;5033077;28;19916;-40
2023/05/29 00:57:16;;;;;;;;;;;17.60;99.90;;;;;;5032226;28;19909;-41
2023/05/29 00:59:42;;;;;;;;;;;17.60;99.90;;;;;;5033286;28;19905;-40
2023/05/29 01:02:07;;;;;;;;;;;17.60;99.90;;;;;;5033071;28;19991;-40
2023/05/29 01:04:33;;;;;;;;;;;17.60;99.90;;;;;;5033241;28;19912;-40
2023/05/29 01:07:02;;;;;;;;;;;17.60;99.90;;;;;;5032409;28;19982;-41
2023/05/29 01:09:29;;;;;;;;;;;17.60;99.90;;;;;;5033267;28;19956;-40
2023/05/29 01:12:13;;;;;;;;;;;17.50;99.90;;;;;;5032878;28;19905;-40
2023/05/29 01:14:57;;;;;;;;;;;17.50;99.90;;;;;;5032782;28;19912;-41
2023/05/29 01:17:32;;;;;;;;;;;17.60;99.90;;;;;;5032285;28;19931;-41
2023/05/29 01:20:05;;;;;;;;;;;17.50;99.90;;;;;;5032768;28;19905;-40
2023/05/29 01:22:48;;;;;;;;;;;17.50;99.90;;;;;;5033222;28;19992;-41
2023/05/29 01:25:33;;;;;;;;;;;17.60;99.90;;;;;;5032760;28;19905;-40
2023/05/29 01:28:00;;;;;;;;;;;17.60;99.90;;;;;;5031968;28;19909;-41
2023/05/29 01:30:27;;;;;;;;;;;17.60;99.90;;;;;;5032900;28;19913;-41
2023/05/29 01:32:52;;;;;;;;;;;17.50;99.90;;;;;;5032597;28;19909;-42
2023/05/29 01:35:18;;;;;;;;;;;17.50;99.90;;;;;;5032424;28;19905;-40
2023/05/29 01:37:43;;;;;;;;;;;17.60;99.90;;;;;;5031835;28;20341;-40
2023/05/29 01:40:09;;;;;;;;;;;17.50;99.90;;;;;;5032289;28;19912;-40
2023/05/29 01:42:35;;;;;;;;;;;17.50;99.90;;;;;;5032110;28;19905;-41
2023/05/29 01:45:01;;;;;;;;;;;17.50;99.90;;;;;;5032554;28;20020;-40
2023/05/29 01:47:27;;;;;;;;;;;17.50;99.90;;;;;;5031851;28;19905;-41
2023/05/29 01:49:53;;;;;;;;;;;17.50;99.90;;;;;;5032243;28;20333;-41
2023/05/29 01:52:18;;;;;;;;;;;17.50;99.90;;;;;;5032130;28;19909;-40
2023/05/29 01:54:44;;;;;;;;;;;17.50;99.90;;;;;;5032215;28;19962;-40
2023/05/29 01:57:10;;;;;;;;;;;17.50;99.90;;;;;;5031379;28;19912;-40
2023/05/29 01:59:36;;;;;;;;;;;17.50;99.90;;;;;;5032171;28;20030;-40
2023/05/29 02:02:06;;;;;;;;;;;17.50;99.90;;;;;;5031970;28;19963;-40
2023/05/29 02:04:31;;;;;;;;;;;17.50;99.90;;;;;;5031922;28;19905;-43
2023/05/29 02:06:57;;;;;;;;;;;17.50;99.90;;;;;;5031484;28;19905;-42
2023/05/29 02:09:23;;;;;;;;;;;17.50;99.90;;;;;;5031724;28;19952;-41
2023/05/29 02:11:48;;;;;;;;;;;17.50;99.90;;;;;;5031674;28;19978;-42
2023/05/29 02:14:14;;;;;;;;;;;17.50;99.90;;;;;;5031681;28;19909;-41
2023/05/29 02:16:40;;;;;;;;;;;17.50;99.90;;;;;;5031439;28;19920;-40
2023/05/29 02:19:06;;;;;;;;;;;17.50;99.90;;;;;;5031637;28;19912;-40
2023/05/29 02:21:32;;;;;;;;;;;17.50;99.90;;;;;;5031644;28;19905;-40
2023/05/29 02:23:57;;;;;;;;;;;17.50;99.90;;;;;;5031561;28;20003;-41
2023/05/29 02:26:22;;;;;;;;;;;17.50;99.90;;;;;;5030878;28;19959;-41
2023/05/29 02:28:48;;;;;;;;;;;17.50;99.90;;;;;;5031495;28;19948;-41
2023/05/29 02:31:13;;;;;;;;;;;17.50;99.90;;;;;;5031393;28;20282;-42
2023/05/29 02:33:39;;;;;;;;;;;17.40;99.90;;;;;;5031522;28;19905;-41
2023/05/29 02:36:11;;;;;;;;;;;17.40;99.90;;;;;;5030977;28;19905;-41
2023/05/29 02:38:37;;;;;;;;;;;17.50;99.90;;;;;;5031372;28;20003;-41
2023/05/29 02:41:02;;;;;;;;;;;17.40;99.90;;;;;;5031334;28;19999;-40
2023/05/29 02:43:28;;;;;;;;;;;17.40;99.90;;;;;;5031315;28;19963;-40
2023/05/29 02:45:53;;;;;;;;;;;17.40;99.90;;;;;;5031150;28;19905;-40
2023/05/29 02:48:19;;;;;;;;;;;17.40;99.90;;;;;;5031181;28;19909;-42
2023/05/29 02:50:44;;;;;;;;;;;17.40;99.90;;;;;;5031285;28;20008;-41
2023/05/29 02:53:10;;;;;;;;;;;17.40;99.90;;;;;;5031159;28;20353;-41
2023/05/29 02:55:36;;;;;;;;;;;17.40;99.90;;;;;;5031214;28;20322;-41
2023/05/29 02:58:02;;;;;;;;;;;17.40;99.90;;;;;;5030876;28;19905;-42
2023/05/29 03:00:28;;;;;;;;;;;17.40;99.90;;;;;;5031337;28;19909;-41
2023/05/29 03:02:54;;;;;;;;;;;17.40;99.90;;;;;;5031171;28;19936;-40
2023/05/29 03:05:20;;;;;;;;;;;17.40;99.90;;;;;;5031648;28;19958;-40
2023/05/29 03:07:45;;;;;;;;;;;17.40;99.90;;;;;;5030657;28;20319;-40
2023/05/29 03:10:11;;;;;;;;;;;17.30;99.90;;;;;;5031375;28;19912;-40
2023/05/29 03:12:37;;;;;;;;;;;17.30;99.90;;;;;;5031128;28;20278;-40
2023/05/29 03:15:03;;;;;;;;;;;17.30;99.90;;;;;;5031401;28;20370;-41
2023/05/29 03:17:28;;;;;;;;;;;17.30;99.90;;;;;;5030639;28;19952;-40
2023/05/29 03:19:54;;;;;;;;;;;17.30;99.90;;;;;;5032781;28;19905;-40
2023/05/29 03:22:20;;;;;;;;;;;17.30;99.90;;;;;;5034920;28;20264;-40
2023/05/29 03:24:45;;;;;;;;;;;17.30;99.90;;;;;;5034709;28;19916;-41
2023/05/29 03:27:11;;;;;;;;;;;17.30;99.90;;;;;;5034357;28;19905;-40
2023/05/29 03:29:36;;;;;;;;;;;17.30;99.90;;;;;;5034724;28;19909;-41
2023/05/29 03:32:02;;;;;;;;;;;17.30;99.90;;;;;;5034740;28;19904;-41
2023/05/29 03:34:27;;;;;;;;;;;17.30;99.90;;;;;;5016925;28;19940;-40
2023/05/29 03:36:53;;;;;;;;;;;17.30;99.90;;;;;;5034082;28;19988;-41
2023/05/29 03:39:19;;;;;;;;;;;17.30;99.90;;;;;;5034461;28;19905;-41
2023/05/29 03:41:44;;;;;;;;;;;17.30;99.90;;;;;;5034550;28;19942;-40
2023/05/29 03:44:10;;;;;;;;;;;17.30;99.90;;;;;;5034365;28;20370;-41
2023/05/29 03:46:35;;;;;;;;;;;17.30;99.90;;;;;;5033932;28;19911;-41
2023/05/29 03:49:01;;;;;;;;;;;17.20;99.90;;;;;;5034527;28;19995;-41
2023/05/29 03:51:26;;;;;;;;;;;17.20;99.90;;;;;;5034355;28;20317;-41
2023/05/29 03:53:52;;;;;;;;;;;17.20;99.90;;;;;;5034144;28;19913;-41
2023/05/29 03:56:17;;;;;;;;;;;17.20;99.90;;;;;;5033845;28;20000;-40
2023/05/29 03:58:43;;;;;;;;;;;17.20;99.90;;;;;;5034232;28;20425;-40
2023/05/29 04:01:09;;;;;;;;;;;17.20;99.90;;;;;;5034342;28;19905;-41
2023/05/29 04:03:35;;;;;;;;;;;17.20;99.90;;;;;;5034180;28;19912;-41
2023/05/29 04:06:00;;;;;;;;;;;17.20;99.90;;;;;;5033772;28;20282;-41
2023/05/29 04:08:26;;;;;;;;;;;17.20;99.90;;;;;;5033815;28;19909;-41
2023/05/29 04:10:53;;;;;;;;;;;17.20;99.90;;;;;;5034017;28;19912;-41
2023/05/29 04:13:19;;;;;;;;;;;17.20;99.90;;;;;;5033981;28;19912;-41
2023/05/29 04:15:45;;;;;;;;;;;17.10;99.90;;;;;;5034044;28;19905;-43
2023/05/29 04:18:10;;;;;;;;;;;17.20;99.90;;;;;;5033674;28;19962;-40
2023/05/29 04:20:36;;;;;;;;;;;17.20;99.90;;;;;;5033874;28;19912;-41
2023/05/29 04:23:01;;;;;;;;;;;17.10;99.90;;;;;;5033589;28;19916;-43
2023/05/29 04:25:27;;;;;;;;;;;17.10;99.90;;;;;;5033811;28;20355;-42
2023/05/29 04:27:52;;;;;;;;;;;17.10;99.90;;;;;;5033309;28;19909;-41
2023/05/29 04:30:18;;;;;;;;;;;17.10;99.90;;;;;;5033291;28;20003;-41
2023/05/29 04:32:43;;;;;;;;;;;17.10;99.90;;;;;;5033389;28;19931;-40
2023/05/29 04:35:10;;;;;;;;;;;17.10;99.90;;;;;;5033537;28;19962;-40
2023/05/29 04:37:38;;;;;;;;;;;17.10;99.90;;;;;;5032912;28;19920;-41
2023/05/29 04:40:08;;;;;;;;;;;17.10;99.90;;;;;;5033569;28;19912;-40
2023/05/29 04:42:34;;;;;;;;;;;17.10;99.90;;;;;;5033503;28;19909;-40
2023/05/29 04:45:00;;;;;;;;;;;17.10;99.90;;;;;;5033365;28;19959;-41
2023/05/29 04:47:26;;;;;;;;;;;17.10;99.90;;;;;;5015245;28;19948;-40
2023/05/29 04:49:51;;;;;;;;;;;17.10;99.90;;;;;;5015480;28;20401;-40
2023/05/29 04:52:17;;;;;;;;;;;17.10;99.90;;;;;;5033285;28;19905;-41
2023/05/29 04:54:43;;;;;;;;;;;17.10;99.90;;;;;;5033207;28;19905;-42
2023/05/29 04:57:08;;;;;;;;;;;17.10;99.90;;;;;;5032723;28;19916;-40
2023/05/29 04:59:34;;;;;;;;;;;17.10;99.90;;;;;;5033488;28;19909;-40
2023/05/29 05:02:00;;;;;;;;;;;17.10;99.90;;;;;;5033107;28;19905;-40
2023/05/29 05:04:25;;;;;;;;;;;17.10;99.90;;;;;;5032838;28;19999;-40
2023/05/29 05:06:51;;;;;;;;;;;17.10;99.90;;;;;;5032825;28;19909;-41
2023/05/29 05:09:17;;;;;;;;;;;17.10;99.90;;;;;;5033125;28;20323;-41
2023/05/29 05:11:43;;;;;;;;;;;17.10;99.90;;;;;;5032907;28;20477;-41
2023/05/29 05:14:08;;;;;;;;;;;17.10;99.90;;;;;;5032793;28;20270;-41
2023/05/29 05:16:34;;;;;;;;;;;17.10;99.90;;;;;;5032233;28;20007;-41
2023/05/29 05:18:59;;;;;;;;;;;17.00;99.90;;;;;;5032746;28;19909;-40
2023/05/29 05:21:25;;;;;;;;;;;17.10;99.90;;;;;;5032605;28;19909;-40
2023/05/29 05:23:50;;;;;;;;;;;17.10;99.90;;;;;;5032642;28;20377;-40
2023/05/29 05:26:16;;;;;;;;;;;17.10;99.90;;;;;;5032278;28;19905;-40
2023/05/29 05:28:42;;;;;;;;;;;17.10;99.90;;;;;;5032915;28;19905;-41
2023/05/29 05:31:08;;;;;;;;;;;17.10;99.90;;;;;;5032461;28;19915;-40
2023/05/29 05:33:34;;;;;;;;;;;17.10;99.90;;;;;;5032319;28;19905;-40
2023/05/29 05:35:59;;;;;;;;;;;17.10;99.90;;;;;;5032189;28;19909;-40
2023/05/29 05:38:25;;;;;;;;;;;17.00;99.90;;;;;;5032268;28;19909;-41
2023/05/29 05:40:51;;;;;;;;;;;17.10;99.90;;;;;;5032424;28;19913;-40
2023/05/29 05:43:16;;;;;;;;;;;17.10;99.90;;;;;;5031794;28;19967;-41
2023/05/29 05:45:42;;;;;;;;;;;17.10;99.90;;;;;;5032125;28;19911;-41
2023/05/29 05:48:08;;;;;;;;;;;17.10;99.90;;;;;;5031851;28;20337;-41
2023/05/29 05:50:34;;;;;;;;;;;17.10;99.90;;;;;;5032059;28;20366;-42
2023/05/29 05:52:59;;;;;;;;;;;17.10;99.90;;;;;;5032058;28;19905;-40
2023/05/29 05:55:26;;;;;;;;;;;17.10;99.90;;;;;;5032031;28;19915;-41
2023/05/29 05:57:51;;;;;;;;;;;17.10;99.90;;;;;;5013731;28;20347;-40
2023/05/29 06:00:17;;;;;;;;;;;17.10;99.90;;;;;;5032004;28;19916;-41
2023/05/29 06:02:44;;;;;;;;;;;17.10;99.90;;;;;;5031894;28;19909;-41
2023/05/29 06:05:11;;;;;;;;;;;17.20;99.90;;;;;;5031614;28;19916;-40
2023/05/29 06:07:37;;;;;;;;;;;17.20;99.90;;;;;;5031337;28;19916;-40
2023/05/29 06:10:03;;;;;;;;;;;17.20;99.90;;;;;;5031729;28;19913;-41
2023/05/29 06:12:29;;;;;;;;;;;17.20;99.90;;;;;;5031767;28;19905;-43
2023/05/29 06:14:55;;;;;;;;;;;17.20;99.90;;;;;;5031706;28;20000;-40
2023/05/29 06:17:21;;;;;;;;;;;17.20;99.90;;;;;;5031174;28;20282;-41
2023/05/29 06:19:47;;;;;;;;;;;17.30;99.90;;;;;;5031572;28;20038;-41
2023/05/29 06:22:13;;;;;;;;;;;17.30;99.90;;;;;;5031602;28;20382;-41
2023/05/29 06:24:39;;;;;;;;;;;17.30;99.90;;;;;;5031494;28;20302;-42
2023/05/29 06:27:06;;;;;;;;;;;17.30;99.90;;;;;;5031081;28;19912;-41
2023/05/29 06:29:31;;;;;;;;;;;17.30;99.90;;;;;;5031426;28;20318;-40
2023/05/29 06:31:57;;;;;;;;;;;17.40;99.90;;;;;;5031403;28;19913;-41
2023/05/29 06:34:23;;;;;;;;;;;17.40;99.90;;;;;;5031616;28;20293;-41
2023/05/29 06:36:48;;;;;;;;;;;17.40;99.90;;;;;;5031006;28;19905;-41
2023/05/29 06:39:14;;;;;;;;;;;17.40;99.90;;;;;;5031461;28;19909;-41
2023/05/29 06:41:40;;;;;;;;;;;17.40;99.90;;;;;;5031564;28;20302;-40
2023/05/29 06:44:06;;;;;;;;;;;17.40;99.90;;;;;;5031244;28;19913;-40
2023/05/29 06:46:31;;;;;;;;;;;17.40;99.90;;;;;;5031315;28;20333;-40
2023/05/29 06:48:57;;;;;;;;;;;17.40;99.90;;;;;;5031314;28;19916;-41
2023/05/29 06:51:22;;;;;;;;;;;17.40;99.90;;;;;;5031440;28;19909;-42
2023/05/29 06:53:48;;;;;;;;;;;17.40;99.90;;;;;;5031229;28;20363;-41
2023/05/29 06:56:13;;;;;;;;;;;17.40;99.90;;;;;;5034861;28;20232;-40
2023/05/29 06:58:39;;;;;;;;;;;17.40;99.90;;;;;;5035323;28;19905;-41
2023/05/29 07:01:05;;;;;;;;;;;17.50;99.90;;;;;;5035324;28;19909;-41
2023/05/29 07:03:31;;;;;;;;;;;17.50;99.90;;;;;;5035391;28;19920;-40
2023/05/29 07:05:56;;;;;;;;;;;17.50;99.90;;;;;;5034869;28;19905;-41
2023/05/29 07:08:22;;;;;;;;;;;17.50;99.90;;;;;;5034984;28;19937;-41
2023/05/29 07:10:48;;;;;;;;;;;17.50;99.90;;;;;;5035505;28;20012;-40
2023/05/29 07:13:17;;;;;;;;;;;17.50;99.90;;;;;;5035094;28;20389;-41
2023/05/29 07:15:43;;;;;;;;;;;17.50;99.90;;;;;;5034880;28;19912;-41
2023/05/29 07:18:09;;;;;;;;;;;17.50;99.90;;;;;;5034728;28;19987;-41
2023/05/29 07:20:35;;;;;;;;;;;17.50;99.90;;;;;;5034978;28;20331;-40
2023/05/29 07:23:01;;;;;;;;;;;17.50;99.90;;;;;;5034824;28;19916;-41
2023/05/29 07:25:27;;;;;;;;;;;17.50;99.90;;;;;;5034879;28;20382;-40
2023/05/29 07:27:53;;;;;;;;;;;17.50;99.90;;;;;;5034081;28;19928;-40
2023/05/29 07:30:18;;;;;;;;;;;17.50;99.90;;;;;;5035250;28;20396;-41
2023/05/29 07:32:44;;;;;;;;;;;17.50;99.90;;;;;;5034621;28;20366;-41
2023/05/29 07:35:09;;;;;;;;;;;17.50;99.90;;;;;;5034554;28;19905;-42
2023/05/29 07:37:35;;;;;;;;;;;17.50;99.90;;;;;;5034140;28;19905;-41
2023/05/29 07:40:00;;;;;;;;;;;17.60;99.90;;;;;;5034750;28;19955;-41
2023/05/29 07:42:26;;;;;;;;;;;17.60;99.90;;;;;;5034620;28;19958;-41
2023/05/29 07:44:52;;;;;;;;;;;17.60;99.90;;;;;;5034892;28;19913;-40
2023/05/29 07:47:17;;;;;;;;;;;17.60;99.90;;;;;;5033922;28;19921;-40
2023/05/29 07:49:43;;;;;;;;;;;17.60;99.90;;;;;;5034352;28;19943;-40
2023/05/29 07:52:08;;;;;;;;;;;17.60;99.90;;;;;;5034436;28;20288;-40
2023/05/29 07:54:34;;;;;;;;;;;17.60;99.90;;;;;;5034271;28;20271;-44
2023/05/29 07:56:59;;;;;;;;;;;17.60;99.90;;;;;;5033844;28;20264;-42
2023/05/29 07:59:25;;;;;;;;;;;17.60;99.90;;;;;;5034258;28;19911;-41
2023/05/29 08:01:51;;;;;;;;;;;17.60;99.90;;;;;;5034036;28;20302;-40
2023/05/29 08:04:16;;;;;;;;;;;17.60;99.90;;;;;;5034093;28;19905;-41
2023/05/29 08:06:43;;;;;;;;;;;17.60;99.90;;;;;;5033427;28;19905;-41
2023/05/29 08:09:09;;;;;;;;;;;17.60;99.90;;;;;;5034063;28;19905;-40
2023/05/29 08:11:38;;;;;;;;;;;17.60;99.90;;;;;;5033984;28;20393;-40
2023/05/29 08:14:03;;;;;;;;;;;17.70;99.90;;;;;;5033837;28;19905;-40
2023/05/29 08:16:29;;;;;;;;;;;17.70;99.90;;;;;;5033328;28;19915;-41
2023/05/29 08:18:55;;;;;;;;;;;17.70;99.90;;;;;;5033833;28;19909;-40
2023/05/29 08:21:21;;;;;;;;;;;17.70;99.90;;;;;;5033890;28;20004;-41
2023/05/29 08:23:46;;;;;;;;;;;17.70;99.90;;;;;;5033767;28;19940;-40
2023/05/29 08:26:13;;;;;;;;;;;17.70;99.90;;;;;;5033246;28;20062;-40
2023/05/29 08:28:38;;;;;;;;;;;17.70;99.90;;;;;;5033659;28;19912;-40
2023/05/29 08:31:04;;;;;;;;;;;17.70;99.90;;;;;;5033542;28;19913;-40
2023/05/29 08:33:30;;;;;;;;;;;17.70;99.90;;;;;;5033595;28;20290;-40
2023/05/29 08:35:57;;;;;;;;;;;17.70;99.90;;;;;;5033380;28;19909;-41
2023/05/29 08:38:25;;;;;;;;;;;17.70;99.90;;;;;;5033520;28;19909;-41
2023/05/29 08:40:50;;;;;;;;;;;17.70;99.90;;;;;;5033571;28;19913;-41
2023/05/29 08:43:20;;;;;;;;;;;17.70;99.90;;;;;;5033219;28;19919;-40
2023/05/29 08:45:47;;;;;;;;;;;17.70;99.90;;;;;;5033265;28;19912;-40
2023/05/29 08:48:13;;;;;;;;;;;17.80;99.90;;;;;;5033356;28;19913;-41
2023/05/29 08:50:45;;;;;;;;;;;17.80;99.90;;;;;;5033428;28;19996;-41
2023/05/29 08:53:11;;;;;;;;;;;17.80;99.90;;;;;;5033261;28;19911;-40
2023/05/29 08:55:36;;;;;;;;;;;17.80;99.90;;;;;;5033211;28;20008;-41
2023/05/29 08:58:02;;;;;;;;;;;17.80;99.90;;;;;;5032607;28;20363;-41
2023/05/29 09:00:29;;;;;;;;;;;17.80;99.90;;;;;;5033153;28;19913;-41
2023/05/29 09:02:55;;;;;;;;;;;17.80;99.90;;;;;;5033294;28;20287;-41
2023/05/29 09:05:21;;;;;;;;;;;17.80;99.90;;;;;;5033078;28;19912;-41
2023/05/29 09:07:49;;;;;;;;;;;17.80;99.90;;;;;;5032615;28;20286;-40
2023/05/29 09:10:15;;;;;;;;;;;17.80;99.90;;;;;;5032791;28;19909;-40
2023/05/29 09:12:40;;;;;;;;;;;17.80;99.90;;;;;;5032822;28;19909;-42
2023/05/29 09:15:27;;;;;;;;;;;17.80;99.90;;;;;;5032781;28;19905;-41
2023/05/29 09:17:53;;;;;;;;;;;17.90;99.90;;;;;;5031319;28;20424;-40
2023/05/29 09:20:22;;;;;;;;;;;17.90;99.90;;;;;;5014957;28;19963;-40
2023/05/29 09:22:54;;;;;;;;;;;17.90;99.90;;;;;;5014860;28;19908;-40
2023/05/29 09:25:22;;;;;;;;;;;17.90;99.90;;;;;;5032628;28;19966;-40
2023/05/29 09:27:50;;;;;;;;;;;17.90;99.90;;;;;;5032542;28;20271;-41
2023/05/29 09:30:30;;;;;;;;;;;17.90;99.90;;;;;;5032506;28;20204;-41
2023/05/29 09:32:56;;;;;;;;;;;17.90;99.90;;;;;;5032553;28;20278;-41
2023/05/29 09:35:21;;;;;;;;;;;17.90;99.90;;;;;;5032394;28;19905;-41
2023/05/29 09:37:47;;;;;;;;;;;17.90;99.90;;;;;;5031921;28;20317;-41
2023/05/29 09:40:13;;;;;;;;;;;17.90;99.90;;;;;;5032394;28;19999;-40
2023/05/29 09:42:39;;;;;;;;;;;17.90;99.90;;;;;;5032314;28;19912;-42
2023/05/29 09:45:04;;;;;;;;;;;18.00;99.90;;;;;;5032063;28;19921;-41
2023/05/29 09:47:33;;;;;;;;;;;18.00;99.90;;;;;;5031764;28;19952;-40
2023/05/29 09:50:00;;;;;;;;;;;18.00;99.90;;;;;;5031985;28;19909;-41
2023/05/29 09:52:26;;;;;;;;;;;18.00;99.90;;;;;;5032556;28;20347;-41
2023/05/29 09:54:52;;;;;;;;;;;18.00;99.90;;;;;;5032080;28;19944;-41
2023/05/29 09:57:18;;;;;;;;;;;18.00;99.90;;;;;;5031551;28;19905;-41
2023/05/29 09:59:44;;;;;;;;;;;18.00;99.90;;;;;;5032009;28;20278;-40
2023/05/29 10:02:12;;;;;;;;;;;18.00;99.90;;;;;;5032098;28;20219;-41
2023/05/29 10:04:40;;;;;;;;;;;18.00;99.90;;;;;;5031699;28;19959;-42
2023/05/29 10:07:09;;;;;;;;;;;18.00;99.90;;;;;;5031356;28;19905;-41
2023/05/29 10:09:38;;;;;;;;;;;18.00;99.90;;;;;;5031822;28;19905;-41
2023/05/29 10:12:07;;;;;;;;;;;18.10;99.90;;;;;;5031829;28;20382;-40
2023/05/29 10:14:33;;;;;;;;;;;18.10;99.90;;;;;;5031707;28;20267;-40
2023/05/29 10:17:01;;;;;;;;;;;18.10;99.90;;;;;;5031133;28;19905;-40
2023/05/29 10:19:29;;;;;;;;;;;18.10;99.90;;;;;;5031692;28;19915;-41
2023/05/29 10:21:55;;;;;;;;;;;18.10;99.90;;;;;;5031679;28;19951;-40
2023/05/29 10:24:21;;;;;;;;;;;18.10;99.90;;;;;;5031589;28;19954;-41
2023/05/29 10:26:48;;;;;;;;;;;18.10;99.90;;;;;;5031119;28;19912;-41
2023/05/29 10:29:46;;;;;;;;;;;18.10;99.90;;;;;;5030719;28;19912;-40
2023/05/29 10:32:27;;;;;;;;;;;18.10;99.90;;;;;;4987348;28;19952;-41
2023/05/29 10:35:02;;;;;;;;;;;18.10;99.90;;;;;;5031455;28;19908;-41
2023/05/29 10:37:30;;;;;;;;;;;18.10;99.90;;;;;;5031066;28;19916;-41
2023/05/29 10:40:06;;;;;;;;;;;18.10;99.90;;;;;;5031386;28;19916;-41
2023/05/29 10:42:38;;;;;;;;;;;18.10;99.90;;;;;;5031763;28;19913;-40
2023/05/29 10:45:04;;;;;;;;;;;18.20;99.90;;;;;;5031277;28;19919;-41
2023/05/29 10:47:29;;;;;;;;;;;18.20;99.90;;;;;;5030941;28;20000;-40
2023/05/29 10:49:59;;;;;;;;;;;18.20;99.90;;;;;;5031352;28;20434;-40
2023/05/29 10:52:24;;;;;;;;;;;18.20;99.90;;;;;;5031306;28;19912;-41
2023/05/29 10:54:51;;;;;;;;;;;18.20;99.90;;;;;;5031450;28;19905;-40
2023/05/29 10:57:17;;;;;;;;;;;18.20;99.90;;;;;;5030776;28;19905;-41
2023/05/29 10:59:44;;;;;;;;;;;18.20;99.90;;;;;;5031247;28;20363;-41
2023/05/29 11:02:10;;;;;;;;;;;18.30;99.90;;;;;;5031342;28;19905;-42
2023/05/29 11:04:36;;;;;;;;;;;18.30;99.90;;;;;;5031155;28;19912;-40
2023/05/29 11:07:06;;;;;;;;;;;18.30;99.90;;;;;;5030596;28;20383;-40
2023/05/29 11:09:34;;;;;;;;;;;18.30;99.90;;;;;;5031354;28;19936;-41
2023/05/29 11:12:12;;;;;;;;;;;18.30;99.90;;;;;;5031245;28;19913;-41
2023/05/29 11:14:45;;;;;;;;;;;18.30;99.90;;;;;;5031090;28;19996;-40
2023/05/29 11:17:28;;;;;;;;;;;18.30;99.90;;;;;;5030687;28;20385;-40
2023/05/29 11:19:55;;;;;;;;;;;18.30;99.90;;;;;;5031488;28;20332;-41
2023/05/29 11:22:23;;;;;;;;;;;18.30;99.90;;;;;;5031052;28;19952;-40
2023/05/29 11:24:49;;;;;;;;;;;18.40;99.90;;;;;;5030964;28;19909;-40
2023/05/29 11:27:15;;;;;;;;;;;18.40;99.90;;;;;;5030445;28;19908;-43
2023/05/29 11:29:40;;;;;;;;;;;18.40;99.90;;;;;;5030935;28;19909;-40
2023/05/29 11:32:10;;;;;;;;;;;18.30;99.90;;;;;;5030849;28;20428;-40
2023/05/29 11:34:37;;;;;;;;;;;18.40;99.90;;;;;;5030980;28;20370;-40
2023/05/29 11:37:03;;;;;;;;;;;18.40;99.90;;;;;;5030455;28;20355;-43
2023/05/29 11:39:29;;;;;;;;;;;18.40;99.90;;;;;;5030880;28;19912;-40
2023/05/29 11:41:55;;;;;;;;;;;18.40;99.90;;;;;;5034048;28;20358;-40
2023/05/29 11:44:20;;;;;;;;;;;18.40;99.90;;;;;;5034487;28;19919;-41
2023/05/29 11:46:46;;;;;;;;;;;18.40;99.90;;;;;;5033973;28;20282;-41
2023/05/29 11:49:11;;;;;;;;;;;18.40;99.90;;;;;;5034478;28;19947;-41
2023/05/29 11:51:37;;;;;;;;;;;18.40;99.90;;;;;;5034575;28;20012;-40
2023/05/29 11:54:03;;;;;;;;;;;18.40;99.90;;;;;;5034304;28;19909;-40
2023/05/29 11:56:29;;;;;;;;;;;18.40;99.90;;;;;;5033802;28;19959;-41
2023/05/29 11:58:56;;;;;;;;;;;18.40;99.90;;;;;;5034737;28;19959;-41
2023/05/29 12:01:23;;;;;;;;;;;18.40;99.90;;;;;;5034583;28;19966;-40
2023/05/29 12:03:49;;;;;;;;;;;18.50;99.90;;;;;;5034158;28;19963;-40
2023/05/29 12:06:14;;;;;;;;;;;18.50;99.90;;;;;;5033665;28;19905;-40
2023/05/29 12:08:41;;;;;;;;;;;18.50;99.90;;;;;;5034042;28;20359;-42
2023/05/29 12:11:06;;;;;;;;;;;18.50;99.90;;;;;;5034349;28;19909;-41
2023/05/29 12:13:32;;;;;;;;;;;18.50;99.90;;;;;;5033932;28;19958;-40
2023/05/29 12:16:01;;;;;;;;;;;18.50;99.90;;;;;;5033568;28;19909;-42
2023/05/29 12:18:26;;;;;;;;;;;18.50;99.90;;;;;;5033848;28;19912;-41
2023/05/29 12:21:02;;;;;;;;;;;18.50;99.90;;;;;;5033862;28;19905;-40
2023/05/29 12:23:28;;;;;;;;;;;18.50;99.90;;;;;;5033924;28;20197;-41
2023/05/29 12:25:54;;;;;;;;;;;18.50;99.90;;;;;;5033501;28;19916;-40
2023/05/29 12:28:20;;;;;;;;;;;18.50;99.90;;;;;;5033250;28;19916;-41
2023/05/29 12:30:52;;;;;;;;;;;18.50;99.90;;;;;;5033716;28;20321;-40
2023/05/29 12:33:28;;;;;;;;;;;18.50;99.90;;;;;;5033703;28;19912;-41
2023/05/29 12:35:53;;;;;;;;;;;18.50;99.90;;;;;;5033229;28;20282;-40
2023/05/29 12:38:20;;;;;;;;;;;18.50;99.90;;;;;;5033450;28;19909;-41
2023/05/29 12:40:48;;;;;;;;;;;18.50;99.90;;;;;;5033501;28;19912;-42
2023/05/29 12:43:13;;;;;;;;;;;18.60;99.90;;;;;;5033408;28;20381;-40
2023/05/29 12:45:39;;;;;;;;;;;18.60;99.90;;;;;;5033528;28;19909;-40
2023/05/29 12:48:05;;;;;;;;;;;18.50;99.90;;;;;;5033074;28;19909;-41
2023/05/29 12:50:31;;;;;;;;;;;18.60;99.90;;;;;;5033626;28;20383;-41
2023/05/29 12:52:57;;;;;;;;;;;18.60;99.90;;;;;;5032755;28;19912;-41
2023/05/29 12:55:23;;;;;;;;;;;18.60;99.90;;;;;;5033156;28;20307;-40
2023/05/29 12:57:48;;;;;;;;;;;18.60;99.90;;;;;;5032883;28;19905;-40
2023/05/29 13:00:14;;;;;;;;;;;18.60;99.90;;;;;;5033283;28;19911;-41
2023/05/29 13:02:40;;;;;;;;;;;18.60;99.90;;;;;;5033166;28;20404;-40
2023/05/29 13:05:06;;;;;;;;;;;18.60;99.90;;;;;;5033053;28;20417;-41
2023/05/29 13:07:32;;;;;;;;;;;18.60;99.90;;;;;;5032510;28;19995;-41
2023/05/29 13:09:57;;;;;;;;;;;18.60;99.90;;;;;;5032762;28;19912;-42
2023/05/29 13:12:23;;;;;;;;;;;18.60;99.90;;;;;;5032947;28;19905;-40
2023/05/29 13:14:48;;;;;;;;;;;18.60;99.90;;;;;;5032998;28;20336;-40
2023/05/29 13:17:14;;;;;;;;;;;18.60;99.90;;;;;;5032300;28;20000;-40
2023/05/29 13:19:40;;;;;;;;;;;18.60;99.90;;;;;;5032870;28;20003;-41
2023/05/29 13:22:05;;;;;;;;;;;18.60;99.90;;;;;;5032738;28;19912;-42
2023/05/29 13:24:31;;;;;;;;;;;18.60;99.90;;;;;;5032466;28;20387;-40
2023/05/29 13:26:56;;;;;;;;;;;18.60;99.90;;;;;;5032169;28;19909;-40
2023/05/29 13:29:22;;;;;;;;;;;18.60;99.90;;;;;;5032626;28;19917;-41
2023/05/29 13:31:47;;;;;;;;;;;18.60;99.90;;;;;;5032534;28;19909;-41
2023/05/29 13:34:13;;;;;;;;;;;18.60;99.90;;;;;;5032457;28;19905;-40
2023/05/29 13:36:38;;;;;;;;;;;18.60;99.90;;;;;;5032080;28;19962;-40
2023/05/29 13:39:04;;;;;;;;;;;18.60;99.90;;;;;;5032405;28;19909;-43
2023/05/29 13:41:30;;;;;;;;;;;18.70;99.90;;;;;;5032365;28;19928;-40
2023/05/29 13:43:56;;;;;;;;;;;18.70;99.90;;;;;;5032889;28;19995;-41
2023/05/29 13:46:22;;;;;;;;;;;18.70;99.90;;;;;;5031765;28;20382;-40
2023/05/29 13:48:47;;;;;;;;;;;18.70;99.90;;;;;;5032310;28;19909;-41
2023/05/29 13:51:13;;;;;;;;;;;18.70;99.90;;;;;;5032196;28;19916;-41
2023/05/29 13:53:38;;;;;;;;;;;18.70;99.90;;;;;;5032232;28;19905;-40
2023/05/29 13:56:04;;;;;;;;;;;18.70;99.90;;;;;;5031681;28;20263;-41
2023/05/29 13:58:30;;;;;;;;;;;18.70;99.90;;;;;;5032016;28;19930;-40
2023/05/29 14:00:55;;;;;;;;;;;18.70;99.90;;;;;;5032120;28;19905;-41
2023/05/29 14:03:21;;;;;;;;;;;18.70;99.90;;;;;;5031780;28;19920;-41
2023/05/29 14:05:46;;;;;;;;;;;18.70;99.90;;;;;;5031771;28;19905;-41
2023/05/29 14:08:12;;;;;;;;;;;18.70;99.90;;;;;;5031642;28;19982;-41
2023/05/29 14:10:37;;;;;;;;;;;18.60;99.90;;;;;;5031664;28;19909;-42
2023/05/29 14:13:03;;;;;;;;;;;18.70;99.90;;;;;;5031734;28;20401;-40